sensor_id;sensor_type;location;lat;lon;timestamp;pressure;altitude;pressure_sealevel;temperature;humidity
54236;BME280;40151;43.606;1.472;2023-02-23T00:01:56;99171.94;;;17.59;52.73
54236;BME280;40151;43.606;1.472;2023-02-23T00:04:23;99176.34;;;17.58;52.99
54236;BME280;40151;43.606;1.472;2023-02-23T00:06:49;99174.63;;;17.57;52.84
54236;BME280;40151;43.606;1.472;2023-02-23T00:09:18;99176.41;;;17.57;52.85
54236;BME280;40151;43.606;1.472;2023-02-23T00:11:55;99171.13;;;17.57;52.74
54236;BME280;40151;43.606;1.472;2023-02-23T00:14:24;99165.78;;;17.58;52.80
54236;BME280;40151;43.606;1.472;2023-02-23T00:16:51;99157.03;;;17.58;53.03
54236;BME280;40151;43.606;1.472;2023-02-23T00:19:17;99165.78;;;17.58;52.55
54236;BME280;40151;43.606;1.472;2023-02-23T00:21:43;99156.25;;;17.56;53.12
54236;BME280;40151;43.606;1.472;2023-02-23T00:24:11;99149.19;;;17.56;53.04
54236;BME280;40151;43.606;1.472;2023-02-23T00:26:43;99150.97;;;17.56;52.70
54236;BME280;40151;43.606;1.472;2023-02-23T00:29:20;99150.97;;;17.56;52.85
54236;BME280;40151;43.606;1.472;2023-02-23T00:31:48;99143.84;;;17.58;52.56
54236;BME280;40151;43.606;1.472;2023-02-23T00:34:17;99137.78;;;17.56;52.96
54236;BME280;40151;43.606;1.472;2023-02-23T00:36:49;99131.72;;;17.54;53.06
54236;BME280;40151;43.606;1.472;2023-02-23T00:39:14;99132.66;;;17.53;52.90
54236;BME280;40151;43.606;1.472;2023-02-23T00:41:51;99122.00;;;17.54;52.58
54236;BME280;40151;43.606;1.472;2023-02-23T00:44:16;99123.81;;;17.54;52.68
54236;BME280;40151;43.606;1.472;2023-02-23T00:46:43;99122.13;;;17.53;52.91
54236;BME280;40151;43.606;1.472;2023-02-23T00:49:11;99124.75;;;17.53;52.72
54236;BME280;40151;43.606;1.472;2023-02-23T00:51:36;99122.19;;;17.51;53.17
54236;BME280;40151;43.606;1.472;2023-02-23T00:54:04;99119.47;;;17.53;52.90
54236;BME280;40151;43.606;1.472;2023-02-23T00:56:30;99109.06;;;17.50;52.93
54236;BME280;40151;43.606;1.472;2023-02-23T00:58:55;99106.44;;;17.50;53.01
54236;BME280;40151;43.606;1.472;2023-02-23T01:01:21;99104.66;;;17.50;52.88
54236;BME280;40151;43.606;1.472;2023-02-23T01:03:47;99104.66;;;17.50;53.13
54236;BME280;40151;43.606;1.472;2023-02-23T01:06:15;99103.78;;;17.50;52.88
54236;BME280;40151;43.606;1.472;2023-02-23T01:08:43;99092.41;;;17.49;52.87
54236;BME280;40151;43.606;1.472;2023-02-23T01:11:14;99095.06;;;17.49;52.68
54236;BME280;40151;43.606;1.472;2023-02-23T01:13:42;99086.28;;;17.49;52.77
54236;BME280;40151;43.606;1.472;2023-02-23T01:16:10;99082.69;;;17.50;52.94
54236;BME280;40151;43.606;1.472;2023-02-23T01:18:37;99084.56;;;17.48;52.70
54236;BME280;40151;43.606;1.472;2023-02-23T01:21:04;99082.06;;;17.44;52.85
54236;BME280;40151;43.606;1.472;2023-02-23T01:23:30;99089.84;;;17.48;52.82
54236;BME280;40151;43.606;1.472;2023-02-23T01:25:57;99083.63;;;17.49;52.83
54236;BME280;40151;43.606;1.472;2023-02-23T01:28:22;99075.88;;;17.45;52.93
54236;BME280;40151;43.606;1.472;2023-02-23T01:30:48;99081.13;;;17.45;52.78
54236;BME280;40151;43.606;1.472;2023-02-23T01:33:13;99086.41;;;17.45;52.85
54236;BME280;40151;43.606;1.472;2023-02-23T01:35:39;99075.88;;;17.45;53.19
54236;BME280;40151;43.606;1.472;2023-02-23T01:38:04;99070.69;;;17.44;53.11
54236;BME280;40151;43.606;1.472;2023-02-23T01:40:30;99075.88;;;17.45;53.13
54236;BME280;40151;43.606;1.472;2023-02-23T01:42:59;99061.06;;;17.43;52.78
54236;BME280;40151;43.606;1.472;2023-02-23T01:45:35;99051.44;;;17.42;53.05
54236;BME280;40151;43.606;1.472;2023-02-23T01:50:46;99037.25;;;17.44;52.71
54236;BME280;40151;43.606;1.472;2023-02-23T01:53:13;99031.19;;;17.42;52.97
54236;BME280;40151;43.606;1.472;2023-02-23T01:55:39;99021.59;;;17.41;52.94
54236;BME280;40151;43.606;1.472;2023-02-23T01:58:17;99016.31;;;17.41;53.02
54236;BME280;40151;43.606;1.472;2023-02-23T02:00:55;99007.47;;;17.42;52.99
54236;BME280;40151;43.606;1.472;2023-02-23T02:03:41;99001.31;;;17.42;52.90
54236;BME280;40151;43.606;1.472;2023-02-23T02:06:10;99004.06;;;17.40;53.04
54236;BME280;40151;43.606;1.472;2023-02-23T02:08:39;98997.94;;;17.40;53.02
54236;BME280;40151;43.606;1.472;2023-02-23T02:11:14;98997.06;;;17.39;52.65
54236;BME280;40151;43.606;1.472;2023-02-23T02:14:25;98991.78;;;17.39;52.83
54236;BME280;40151;43.606;1.472;2023-02-23T02:31:27;98961.25;;;17.35;52.78
54236;BME280;40151;43.606;1.472;2023-02-23T02:42:07;98956.91;;;17.34;52.84
54236;BME280;40151;43.606;1.472;2023-02-23T02:50:09;98939.38;;;17.33;52.94
54236;BME280;40151;43.606;1.472;2023-02-23T02:52:43;98934.09;;;17.33;52.74
54236;BME280;40151;43.606;1.472;2023-02-23T02:57:37;98931.03;;;17.25;52.97
54236;BME280;40151;43.606;1.472;2023-02-23T03:00:05;98923.19;;;17.23;53.21
54236;BME280;40151;43.606;1.472;2023-02-23T03:02:49;98917.09;;;17.23;52.86
54236;BME280;40151;43.606;1.472;2023-02-23T03:05:42;98912.66;;;17.23;52.97
54236;BME280;40151;43.606;1.472;2023-02-23T03:08:36;98904.81;;;17.22;52.87
54236;BME280;40151;43.606;1.472;2023-02-23T03:11:24;98909.06;;;17.24;53.04
54236;BME280;40151;43.606;1.472;2023-02-23T03:17:17;98877.63;;;17.21;53.08
54236;BME280;40151;43.606;1.472;2023-02-23T03:20:49;98875.81;;;17.22;52.80
54236;BME280;40151;43.606;1.472;2023-02-23T03:26:58;98862.63;;;17.22;53.06
54236;BME280;40151;43.606;1.472;2023-02-23T03:29:52;98851.34;;;17.20;52.94
54236;BME280;40151;43.606;1.472;2023-02-23T03:32:53;98853.97;;;17.20;53.08
54236;BME280;40151;43.606;1.472;2023-02-23T03:35:44;98839.09;;;17.18;53.03
54236;BME280;40151;43.606;1.472;2023-02-23T03:39:44;98840.03;;;17.17;53.16
54236;BME280;40151;43.606;1.472;2023-02-23T03:41:56;98838.31;;;17.16;52.84
54236;BME280;40151;43.606;1.472;2023-02-23T03:44:43;98833.22;;;17.13;52.93
54236;BME280;40151;43.606;1.472;2023-02-23T03:47:32;98834.91;;;17.14;52.91
54236;BME280;40151;43.606;1.472;2023-02-23T03:50:28;98847.16;;;17.15;52.93
54236;BME280;40151;43.606;1.472;2023-02-23T03:53:16;98844.50;;;17.15;53.09
54236;BME280;40151;43.606;1.472;2023-02-23T03:56:01;98834.75;;;17.17;53.00
54236;BME280;40151;43.606;1.472;2023-02-23T03:58:50;98833.22;;;17.13;53.01
54236;BME280;40151;43.606;1.472;2023-02-23T04:01:37;98834.91;;;17.14;52.97
54236;BME280;40151;43.606;1.472;2023-02-23T04:04:22;98833.22;;;17.13;52.90
54236;BME280;40151;43.606;1.472;2023-02-23T04:07:09;98829.63;;;17.14;52.76
54236;BME280;40151;43.606;1.472;2023-02-23T04:09:56;98823.53;;;17.14;53.02
54236;BME280;40151;43.606;1.472;2023-02-23T04:15:37;98815.69;;;17.12;52.88
54236;BME280;40151;43.606;1.472;2023-02-23T04:18:04;98812.28;;;17.10;52.87
54236;BME280;40151;43.606;1.472;2023-02-23T04:20:29;98800.97;;;17.08;52.62
54236;BME280;40151;43.606;1.472;2023-02-23T04:22:55;98798.34;;;17.08;52.96
54236;BME280;40151;43.606;1.472;2023-02-23T04:25:20;98790.50;;;17.07;53.03
54236;BME280;40151;43.606;1.472;2023-02-23T04:27:49;98786.09;;;17.07;52.94
54236;BME280;40151;43.606;1.472;2023-02-23T04:30:15;98778.13;;;17.09;52.61
54236;BME280;40151;43.606;1.472;2023-02-23T04:32:40;98781.66;;;17.08;52.78
54236;BME280;40151;43.606;1.472;2023-02-23T04:35:06;98779.22;;;17.04;52.73
54236;BME280;40151;43.606;1.472;2023-02-23T04:37:32;98787.97;;;17.05;52.92
54236;BME280;40151;43.606;1.472;2023-02-23T04:39:57;98790.50;;;17.07;52.57
54236;BME280;40151;43.606;1.472;2023-02-23T04:42:23;98786.09;;;17.07;52.62
54236;BME280;40151;43.606;1.472;2023-02-23T04:44:48;98786.25;;;17.04;52.83
54236;BME280;40151;43.606;1.472;2023-02-23T04:47:14;98787.03;;;17.06;52.70
54236;BME280;40151;43.606;1.472;2023-02-23T04:49:40;98785.34;;;17.05;52.58
54236;BME280;40151;43.606;1.472;2023-02-23T04:52:06;98783.47;;;17.07;52.78
54236;BME280;40151;43.606;1.472;2023-02-23T04:54:31;98787.78;;;17.08;52.35
54236;BME280;40151;43.606;1.472;2023-02-23T04:56:56;98782.72;;;17.05;52.56
54236;BME280;40151;43.606;1.472;2023-02-23T04:59:22;98786.09;;;17.07;52.56
54236;BME280;40151;43.606;1.472;2023-02-23T05:01:47;98780.84;;;17.07;52.48
54236;BME280;40151;43.606;1.472;2023-02-23T05:04:13;98780.06;;;17.05;52.86
54236;BME280;40151;43.606;1.472;2023-02-23T05:06:38;98772.16;;;17.05;52.69
54236;BME280;40151;43.606;1.472;2023-02-23T05:09:04;98770.44;;;17.04;52.41
54236;BME280;40151;43.606;1.472;2023-02-23T05:11:31;98766.91;;;17.05;52.44
54236;BME280;40151;43.606;1.472;2023-02-23T05:13:57;98765.16;;;17.04;52.48
54236;BME280;40151;43.606;1.472;2023-02-23T05:16:22;98757.25;;;17.04;52.38
54236;BME280;40151;43.606;1.472;2023-02-23T05:18:48;98749.50;;;17.01;52.76
54236;BME280;40151;43.606;1.472;2023-02-23T05:21:13;98738.97;;;17.01;52.50
54236;BME280;40151;43.606;1.472;2023-02-23T05:23:39;98732.84;;;17.00;52.48
54236;BME280;40151;43.606;1.472;2023-02-23T05:26:07;98734.88;;;16.95;52.48
54236;BME280;40151;43.606;1.472;2023-02-23T05:28:35;98733.09;;;16.96;52.78
54236;BME280;40151;43.606;1.472;2023-02-23T05:31:01;98736.50;;;16.98;52.57
54236;BME280;40151;43.606;1.472;2023-02-23T05:33:34;98728.59;;;16.98;52.39
54236;BME280;40151;43.606;1.472;2023-02-23T05:36:09;98730.28;;;16.99;52.50
54236;BME280;40151;43.606;1.472;2023-02-23T05:38:36;98733.84;;;16.98;52.53
54236;BME280;40151;43.606;1.472;2023-02-23T05:41:06;98728.59;;;16.98;52.70
54236;BME280;40151;43.606;1.472;2023-02-23T05:43:32;98718.81;;;17.00;52.24
54236;BME280;40151;43.606;1.472;2023-02-23T05:45:57;98713.72;;;16.97;52.41
54236;BME280;40151;43.606;1.472;2023-02-23T05:48:25;98707.69;;;16.95;52.31
54236;BME280;40151;43.606;1.472;2023-02-23T05:50:51;98704.47;;;16.89;52.46
54236;BME280;40151;43.606;1.472;2023-02-23T05:53:16;98699.00;;;16.92;52.35
54236;BME280;40151;43.606;1.472;2023-02-23T05:55:42;98707.69;;;16.95;52.35
54236;BME280;40151;43.606;1.472;2023-02-23T05:58:08;98709.66;;;16.91;52.44
54236;BME280;40151;43.606;1.472;2023-02-23T06:00:33;98709.72;;;16.89;52.46
54236;BME280;40151;43.606;1.472;2023-02-23T06:02:59;98703.50;;;16.90;52.34
54236;BME280;40151;43.606;1.472;2023-02-23T06:05:24;98697.50;;;16.88;52.48
54236;BME280;40151;43.606;1.472;2023-02-23T06:07:49;98693.06;;;16.89;52.35
54236;BME280;40151;43.606;1.472;2023-02-23T06:10:15;98683.72;;;16.83;52.62
54236;BME280;40151;43.606;1.472;2023-02-23T06:12:40;98679.28;;;16.84;52.37
54236;BME280;40151;43.606;1.472;2023-02-23T06:15:06;98683.72;;;16.83;52.32
54236;BME280;40151;43.606;1.472;2023-02-23T06:17:32;98668.25;;;16.77;52.43
54236;BME280;40151;43.606;1.472;2023-02-23T06:19:57;98656.19;;;16.73;52.80
54236;BME280;40151;43.606;1.472;2023-02-23T06:22:26;98646.59;;;16.72;52.50
54236;BME280;40151;43.606;1.472;2023-02-23T06:24:51;98626.59;;;16.68;52.71
54236;BME280;40151;43.606;1.472;2023-02-23T06:27:17;98629.50;;;16.63;52.47
54236;BME280;40151;43.606;1.472;2023-02-23T06:29:42;98613.72;;;16.63;52.61
54236;BME280;40151;43.606;1.472;2023-02-23T06:32:08;98609.38;;;16.62;52.75
54236;BME280;40151;43.606;1.472;2023-02-23T06:34:33;98600.81;;;16.58;52.80
54236;BME280;40151;43.606;1.472;2023-02-23T06:36:59;98597.22;;;16.59;52.80
54236;BME280;40151;43.606;1.472;2023-02-23T06:39:24;98597.03;;;16.62;52.67
54236;BME280;40151;43.606;1.472;2023-02-23T06:41:50;98590.06;;;16.61;52.62
54236;BME280;40151;43.606;1.472;2023-02-23T06:44:15;98591.03;;;16.60;52.59
54236;BME280;40151;43.606;1.472;2023-02-23T06:46:40;98602.31;;;16.62;52.74
54236;BME280;40151;43.606;1.472;2023-02-23T06:49:06;98601.47;;;16.62;52.58
54236;BME280;40151;43.606;1.472;2023-02-23T06:51:31;98598.91;;;16.60;52.57
54236;BME280;40151;43.606;1.472;2023-02-23T06:53:57;98609.47;;;16.60;52.54
54236;BME280;40151;43.606;1.472;2023-02-23T06:56:22;98609.38;;;16.62;52.34
54236;BME280;40151;43.606;1.472;2023-02-23T06:58:48;98626.94;;;16.61;52.38
54236;BME280;40151;43.606;1.472;2023-02-23T07:01:14;98618.13;;;16.62;52.31
54236;BME280;40151;43.606;1.472;2023-02-23T07:03:40;98633.91;;;16.62;52.39
54236;BME280;40151;43.606;1.472;2023-02-23T07:06:05;98634.69;;;16.64;52.66
54236;BME280;40151;43.606;1.472;2023-02-23T07:08:32;98646.00;;;16.67;52.47
54236;BME280;40151;43.606;1.472;2023-02-23T07:11:24;98652.00;;;16.69;52.61
54236;BME280;40151;43.606;1.472;2023-02-23T07:13:49;98642.25;;;16.71;52.55
54236;BME280;40151;43.606;1.472;2023-02-23T07:16:14;98644.28;;;16.66;52.46
54236;BME280;40151;43.606;1.472;2023-02-23T07:18:40;98647.59;;;16.69;52.53
54236;BME280;40151;43.606;1.472;2023-02-23T07:21:06;98654.66;;;16.69;52.60
54236;BME280;40151;43.606;1.472;2023-02-23T07:23:32;98651.19;;;16.68;52.42
54236;BME280;40151;43.606;1.472;2023-02-23T07:25:58;98667.06;;;16.67;52.77
54236;BME280;40151;43.606;1.472;2023-02-23T07:28:23;98660.78;;;16.69;52.75
54236;BME280;40151;43.606;1.472;2023-02-23T07:30:54;98662.53;;;16.69;52.70
54236;BME280;40151;43.606;1.472;2023-02-23T07:33:20;98678.19;;;16.72;52.50
54236;BME280;40151;43.606;1.472;2023-02-23T07:35:45;98686.97;;;16.72;52.68
54236;BME280;40151;43.606;1.472;2023-02-23T07:38:11;98687.03;;;16.71;52.44
54236;BME280;40151;43.606;1.472;2023-02-23T07:40:37;98687.78;;;16.73;52.56
54236;BME280;40151;43.606;1.472;2023-02-23T07:43:03;98686.84;;;16.74;52.35
54236;BME280;40151;43.606;1.472;2023-02-23T07:45:29;98686.97;;;16.72;52.57
54236;BME280;40151;43.606;1.472;2023-02-23T07:47:54;98694.75;;;16.74;52.43
54236;BME280;40151;43.606;1.472;2023-02-23T07:50:19;98693.06;;;16.73;52.41
54236;BME280;40151;43.606;1.472;2023-02-23T07:52:45;98705.41;;;16.72;52.57
54236;BME280;40151;43.606;1.472;2023-02-23T07:55:10;98705.47;;;16.71;52.73
54236;BME280;40151;43.606;1.472;2023-02-23T07:57:36;98705.28;;;16.74;52.62
54236;BME280;40151;43.606;1.472;2023-02-23T08:00:04;98710.56;;;16.74;52.80
54236;BME280;40151;43.606;1.472;2023-02-23T08:02:30;98722.03;;;16.73;52.50
54236;BME280;40151;43.606;1.472;2023-02-23T08:04:56;98722.03;;;16.73;52.56
54236;BME280;40151;43.606;1.472;2023-02-23T08:07:22;98729.88;;;16.74;52.56
54236;BME280;40151;43.606;1.472;2023-02-23T08:09:48;98730.88;;;16.72;52.58
54236;BME280;40151;43.606;1.472;2023-02-23T08:12:14;98730.81;;;16.73;52.63
54236;BME280;40151;43.606;1.472;2023-02-23T08:14:40;98731.63;;;16.74;52.72
54236;BME280;40151;43.606;1.472;2023-02-23T08:17:06;98729.19;;;16.71;52.73
54236;BME280;40151;43.606;1.472;2023-02-23T08:19:32;98729.13;;;16.72;52.82
54236;BME280;40151;43.606;1.472;2023-02-23T08:21:58;98729.28;;;16.69;52.70
54236;BME280;40151;43.606;1.472;2023-02-23T08:24:24;98729.94;;;16.73;52.68
54236;BME280;40151;43.606;1.472;2023-02-23T08:26:51;98728.31;;;16.70;52.62
54236;BME280;40151;43.606;1.472;2023-02-23T08:29:16;98743.97;;;16.73;52.64
54236;BME280;40151;43.606;1.472;2023-02-23T08:31:42;98739.53;;;16.74;52.83
54236;BME280;40151;43.606;1.472;2023-02-23T08:34:08;98744.75;;;16.75;52.77
54236;BME280;40151;43.606;1.472;2023-02-23T08:36:34;98740.47;;;16.73;52.81
54236;BME280;40151;43.606;1.472;2023-02-23T08:38:59;98741.25;;;16.75;52.56
54236;BME280;40151;43.606;1.472;2023-02-23T08:41:26;98742.09;;;16.75;52.61
54236;BME280;40151;43.606;1.472;2023-02-23T08:43:52;98743.88;;;16.75;52.68
54236;BME280;40151;43.606;1.472;2023-02-23T08:46:18;98744.75;;;16.75;52.47
54236;BME280;40151;43.606;1.472;2023-02-23T08:48:45;98742.97;;;16.76;52.55
54236;BME280;40151;43.606;1.472;2023-02-23T08:51:11;98745.59;;;16.76;52.42
54236;BME280;40151;43.606;1.472;2023-02-23T08:53:37;98743.88;;;16.75;52.70
54236;BME280;40151;43.606;1.472;2023-02-23T08:56:04;98747.44;;;16.74;52.66
54236;BME280;40151;43.606;1.472;2023-02-23T08:58:30;98747.44;;;16.74;52.94
54236;BME280;40151;43.606;1.472;2023-02-23T09:00:57;98751.03;;;16.73;52.56
54236;BME280;40151;43.606;1.472;2023-02-23T09:03:22;98751.97;;;16.72;52.95
54236;BME280;40151;43.606;1.472;2023-02-23T09:05:51;98752.72;;;16.74;52.66
54236;BME280;40151;43.606;1.472;2023-02-23T09:08:17;98760.53;;;16.75;52.66
54236;BME280;40151;43.606;1.472;2023-02-23T09:10:43;98750.88;;;16.76;52.59
54236;BME280;40151;43.606;1.472;2023-02-23T09:13:10;98759.59;;;16.76;52.57
54236;BME280;40151;43.606;1.472;2023-02-23T09:15:37;98761.41;;;16.76;52.58
54236;BME280;40151;43.606;1.472;2023-02-23T09:18:04;98759.53;;;16.78;52.60
54236;BME280;40151;43.606;1.472;2023-02-23T09:20:30;98766.50;;;16.79;52.51
54236;BME280;40151;43.606;1.472;2023-02-23T09:22:55;98759.53;;;16.78;52.41
54236;BME280;40151;43.606;1.472;2023-02-23T09:25:21;98759.53;;;16.78;52.80
54236;BME280;40151;43.606;1.472;2023-02-23T09:27:52;98764.81;;;16.78;52.87
54236;BME280;40151;43.606;1.472;2023-02-23T09:30:19;98761.22;;;16.79;52.44
54236;BME280;40151;43.606;1.472;2023-02-23T09:32:49;98770.06;;;16.78;52.90
54236;BME280;40151;43.606;1.472;2023-02-23T09:35:16;98767.44;;;16.78;52.96
54236;BME280;40151;43.606;1.472;2023-02-23T09:37:50;98764.66;;;16.81;53.22
54236;BME280;40151;43.606;1.472;2023-02-23T09:40:21;98775.06;;;16.83;53.37
54236;BME280;40151;43.606;1.472;2023-02-23T09:48:09;98786.63;;;16.80;53.10
54236;BME280;40151;43.606;1.472;2023-02-23T09:50:37;98777.81;;;16.81;53.29
54236;BME280;40151;43.606;1.472;2023-02-23T09:55:40;98781.97;;;16.85;52.84
54236;BME280;40151;43.606;1.472;2023-02-23T09:58:17;98784.69;;;16.84;53.08
54236;BME280;40151;43.606;1.472;2023-02-23T10:03:49;98783.84;;;16.83;53.27
54236;BME280;40151;43.606;1.472;2023-02-23T10:06:17;98782.91;;;16.84;52.98
54236;BME280;40151;43.606;1.472;2023-02-23T10:09:05;98801.34;;;16.84;53.22
54236;BME280;40151;43.606;1.472;2023-02-23T10:22:11;98813.78;;;16.82;53.81
54236;BME280;40151;43.606;1.472;2023-02-23T10:24:42;98808.50;;;16.82;53.31
54236;BME280;40151;43.606;1.472;2023-02-23T10:27:14;98811.22;;;16.81;53.42
54236;BME280;40151;43.606;1.472;2023-02-23T10:34:56;98811.28;;;16.79;53.75
54236;BME280;40151;43.606;1.472;2023-02-23T10:37:23;98813.91;;;16.79;53.59
54236;BME280;40151;43.606;1.472;2023-02-23T10:39:49;98823.53;;;16.80;53.71
54236;BME280;40151;43.606;1.472;2023-02-23T10:42:26;98826.09;;;16.82;53.25
54236;BME280;40151;43.606;1.472;2023-02-23T10:44:56;98831.44;;;16.80;53.28
54236;BME280;40151;43.606;1.472;2023-02-23T10:47:25;98827.88;;;16.81;53.24
54236;BME280;40151;43.606;1.472;2023-02-23T10:49:53;98838.44;;;16.81;53.36
54236;BME280;40151;43.606;1.472;2023-02-23T10:54:49;98827.88;;;16.81;53.64
54236;BME280;40151;43.606;1.472;2023-02-23T10:57:22;98827.97;;;16.80;53.52
54236;BME280;40151;43.606;1.472;2023-02-23T11:02:45;98835.00;;;16.79;53.55
54236;BME280;40151;43.606;1.472;2023-02-23T11:05:43;98841.22;;;16.78;53.38
54236;BME280;40151;43.606;1.472;2023-02-23T11:08:22;98828.09;;;16.76;53.41
54236;BME280;40151;43.606;1.472;2023-02-23T11:10:56;98841.22;;;16.78;53.42
54236;BME280;40151;43.606;1.472;2023-02-23T11:13:23;98832.44;;;16.77;53.25
54236;BME280;40151;43.606;1.472;2023-02-23T11:15:58;98833.44;;;16.75;53.33
54236;BME280;40151;43.606;1.472;2023-02-23T11:18:24;98822.75;;;16.78;53.16
54236;BME280;40151;43.606;1.472;2023-02-23T11:20:51;98834.16;;;16.78;53.60
54236;BME280;40151;43.606;1.472;2023-02-23T11:25:43;98830.75;;;16.76;53.43
54236;BME280;40151;43.606;1.472;2023-02-23T11:28:23;98831.75;;;16.74;53.69
54236;BME280;40151;43.606;1.472;2023-02-23T11:30:50;98826.50;;;16.74;53.20
54236;BME280;40151;43.606;1.472;2023-02-23T11:33:19;98830.81;;;16.75;53.44
54236;BME280;40151;43.606;1.472;2023-02-23T11:35:56;98835.19;;;16.76;53.35
54236;BME280;40151;43.606;1.472;2023-02-23T11:38:26;98834.38;;;16.74;53.33
54236;BME280;40151;43.606;1.472;2023-02-23T11:41:19;98841.34;;;16.75;53.43
54236;BME280;40151;43.606;1.472;2023-02-23T11:43:56;98840.59;;;16.73;53.60
54236;BME280;40151;43.606;1.472;2023-02-23T11:46:22;98828.38;;;16.72;53.44
54236;BME280;40151;43.606;1.472;2023-02-23T11:51:28;98824.09;;;16.69;53.44
54236;BME280;40151;43.606;1.472;2023-02-23T11:53:54;98833.63;;;16.72;53.14
54236;BME280;40151;43.606;1.472;2023-02-23T11:56:22;98825.81;;;16.70;53.50
54236;BME280;40151;43.606;1.472;2023-02-23T11:58:52;98819.59;;;16.71;53.25
54236;BME280;40151;43.606;1.472;2023-02-23T12:01:37;98816.13;;;16.71;53.39
54236;BME280;40151;43.606;1.472;2023-02-23T12:04:08;98811.69;;;16.71;53.18
54236;BME280;40151;43.606;1.472;2023-02-23T12:06:38;98815.19;;;16.72;53.28
54236;BME280;40151;43.606;1.472;2023-02-23T12:09:19;98805.75;;;16.68;53.45
54236;BME280;40151;43.606;1.472;2023-02-23T12:11:57;98803.97;;;16.68;53.24
54236;BME280;40151;43.606;1.472;2023-02-23T12:14:31;98803.03;;;16.69;53.23
54236;BME280;40151;43.606;1.472;2023-02-23T12:17:20;98800.47;;;16.68;53.27
54236;BME280;40151;43.606;1.472;2023-02-23T12:19:57;98797.84;;;16.68;53.54
54236;BME280;40151;43.606;1.472;2023-02-23T12:22:54;98801.41;;;16.67;53.39
54236;BME280;40151;43.606;1.472;2023-02-23T12:25:32;98807.44;;;16.69;53.38
54236;BME280;40151;43.606;1.472;2023-02-23T12:28:03;98801.25;;;16.70;53.34
54236;BME280;40151;43.606;1.472;2023-02-23T12:33:09;98786.53;;;16.66;53.49
54236;BME280;40151;43.606;1.472;2023-02-23T12:40:54;98793.50;;;16.67;53.50
54236;BME280;40151;43.606;1.472;2023-02-23T12:43:36;98794.53;;;16.64;53.52
54236;BME280;40151;43.606;1.472;2023-02-23T12:46:15;98785.78;;;16.63;53.57
54236;BME280;40151;43.606;1.472;2023-02-23T12:51:26;98781.44;;;16.62;53.32
54236;BME280;40151;43.606;1.472;2023-02-23T12:53:54;98779.66;;;16.63;53.66
54236;BME280;40151;43.606;1.472;2023-02-23T13:12:44;98752.56;;;16.61;53.46
54236;BME280;40151;43.606;1.472;2023-02-23T13:17:37;98755.41;;;16.56;53.40
54236;BME280;40151;43.606;1.472;2023-02-23T13:22:48;98740.53;;;16.55;53.68
54236;BME280;40151;43.606;1.472;2023-02-23T13:27:52;98739.63;;;16.56;53.36
54236;BME280;40151;43.606;1.472;2023-02-23T13:30:19;98750.94;;;16.58;53.52
54236;BME280;40151;43.606;1.472;2023-02-23T13:32:46;98738.78;;;16.56;53.42
54236;BME280;40151;43.606;1.472;2023-02-23T13:35:15;98741.31;;;16.57;53.27
54236;BME280;40151;43.606;1.472;2023-02-23T13:38:13;98738.66;;;16.57;53.41
54236;BME280;40151;43.606;1.472;2023-02-23T13:40:58;98741.41;;;16.56;53.20
54236;BME280;40151;43.606;1.472;2023-02-23T13:43:44;98740.53;;;16.55;53.40
54236;BME280;40151;43.606;1.472;2023-02-23T13:46:44;98745.06;;;16.53;53.28
54236;BME280;40151;43.606;1.472;2023-02-23T13:54:55;98745.06;;;16.53;53.59
54236;BME280;40151;43.606;1.472;2023-02-23T13:57:22;98734.53;;;16.53;53.33
54236;BME280;40151;43.606;1.472;2023-02-23T13:59:48;98730.09;;;16.54;53.41
54236;BME280;40151;43.606;1.472;2023-02-23T14:02:22;98729.41;;;16.50;53.47
54236;BME280;40151;43.606;1.472;2023-02-23T14:05:23;98736.38;;;16.51;53.37
54236;BME280;40151;43.606;1.472;2023-02-23T14:07:55;98722.28;;;16.52;53.70
54236;BME280;40151;43.606;1.472;2023-02-23T14:10:28;98715.22;;;16.53;53.58
54236;BME280;40151;43.606;1.472;2023-02-23T14:15:45;98708.34;;;16.50;53.38
54236;BME280;40151;43.606;1.472;2023-02-23T14:21:01;98704.88;;;16.49;53.48
54236;BME280;40151;43.606;1.472;2023-02-23T14:23:34;98709.19;;;16.50;53.11
54236;BME280;40151;43.606;1.472;2023-02-23T14:26:34;98718.03;;;16.49;53.30
54236;BME280;40151;43.606;1.472;2023-02-23T14:31:56;98711.91;;;16.49;53.33
54236;BME280;40151;43.606;1.472;2023-02-23T14:34:41;98709.28;;;16.49;53.39
54236;BME280;40151;43.606;1.472;2023-02-23T14:42:37;98706.66;;;16.49;53.40
54236;BME280;40151;43.606;1.472;2023-02-23T14:45:32;98711.91;;;16.49;53.39
54236;BME280;40151;43.606;1.472;2023-02-23T14:48:05;98714.63;;;16.47;53.55
54236;BME280;40151;43.606;1.472;2023-02-23T14:50:34;98712.84;;;16.48;53.42
54236;BME280;40151;43.606;1.472;2023-02-23T14:53:01;98706.81;;;16.46;53.32
54236;BME280;40151;43.606;1.472;2023-02-23T14:55:32;98708.53;;;16.47;53.19
54236;BME280;40151;43.606;1.472;2023-02-23T14:58:02;98709.47;;;16.46;53.54
54236;BME280;40151;43.606;1.472;2023-02-23T15:00:30;98710.38;;;16.45;53.50
54236;BME280;40151;43.606;1.472;2023-02-23T15:03:05;98700.63;;;16.47;53.53
54236;BME280;40151;43.606;1.472;2023-02-23T15:05:40;98701.56;;;16.46;53.26
54236;BME280;40151;43.606;1.472;2023-02-23T15:08:07;98682.34;;;16.44;53.03
54236;BME280;40151;43.606;1.472;2023-02-23T15:10:37;98685.75;;;16.46;53.44
54236;BME280;40151;43.606;1.472;2023-02-23T15:15:40;98684.97;;;16.44;53.42
54236;BME280;40151;43.606;1.472;2023-02-23T15:18:16;98680.66;;;16.43;53.47
54236;BME280;40151;43.606;1.472;2023-02-23T15:20:46;98678.94;;;16.42;53.53
54236;BME280;40151;43.606;1.472;2023-02-23T15:23:15;98675.38;;;16.43;53.38
54236;BME280;40151;43.606;1.472;2023-02-23T15:25:41;98675.38;;;16.43;53.06
54236;BME280;40151;43.606;1.472;2023-02-23T15:28:27;98678.94;;;16.42;53.26
54236;BME280;40151;43.606;1.472;2023-02-23T15:30:55;98677.25;;;16.41;53.39
54236;BME280;40151;43.606;1.472;2023-02-23T15:33:23;98674.63;;;16.41;53.38
54236;BME280;40151;43.606;1.472;2023-02-23T15:36:15;98669.34;;;16.41;53.38
54236;BME280;40151;43.606;1.472;2023-02-23T15:38:46;98670.25;;;16.40;53.18